Searsmont, Maine
Current Conditions -  °F | °C
As of 12:55 AM on Friday 28 Nov 2014 (Local Time) from KRKD Reporting Station
Clear Clear  
Wind Chill: 21°   Ceiling: Unl
Heat Index: 28°   Visibility: 10mi
Dew Point: 18°   Wind: 7mph
Humidity: 64%   Direction: 40°NE
Pressure: 30"   Gusts: NA
Location:  44.36°N, 69.2°W
Report Text: KRKD 280555Z AUTO 04006KT 10SM CLR M02/M08 A3000 RMK AO1 11010 21020 57010
Loading
Personal Weather Stations






























Interactive Weather Map New forecast layout! Learn more

10-Day Weather Forecast

Advertisements
Track Severe Weather on mobile